Terminal Aerodrome Forecast
Issued by NWS Blacksburg, VA

Current Version | Previous Version | Graphics & Text | Print | Product List | Glossary On
Versions: 1 2 3 4 5 6 7 8 9 10 11 12 13 14 15 16 17 18 19 20 21 22 23 24 25 26 27 28 29 30 31
281
FTUS41 KRNK 102022 AAA
TAFBLF
TAF AMD
KBLF 102022Z 1020/1118 28012G22KT 3SM -SHSN SCT015 OVC025
      TEMPO 1020/1024 1SM -SHSN BKN015
     FM110200 30012G22KT 6SM -SHSN OVC015
     FM111300 29012KT P6SM OVC025=

USA.gov is the U.S. government's official web portal to all federal, state and local government web resources and services.